KTMB/TMB METAR and TAF weather

Enter ICAO airport designator
Station Type Date Time Source
KTMB METAR 2021/04/18 02:53 UTC NOAA

KTMB 180253Z AUTO 26003KT 10SM CLR 23/19 A2992 RMK AO2 SLP130 LAST T02330194 51014


Station Type Date Time Source
KTMB Decoded METAR 2021/04/18 02:53 UTC NOAA

KENDALL-TAMIAMI EXEC AIRPORT , FL, United States (KTMB) 25-39N 080-26W 2M
Apr 17, 2021 - 10:53 PM EDT / 2021.04.18 0253 UTC
Wind: from the W (260 degrees) at 3 MPH (3 KT):0
Visibility: 10 mile(s):0
Sky conditions: clear
Temperature: 73.9 F (23.3 C)
Dew Point: 66.9 F (19.4 C)
Relative Humidity: 78%
Pressure (altimeter): 29.92 in. Hg (1013 hPa)
Pressure tendency: 0.04 inches (1.4 hPa) higher than three hours ago
ob: KTMB 180253Z AUTO 26003KT 10SM CLR 23/19 A2992 RMK AO2 SLP130 LAST T02330194 51014
cycle: 3

Station Type Date Time Source
KTMB TAF 2021/04/17 21:34 UTC NOAA

TAF
AMD KTMB 172032Z 1721/1818 23014KT P6SM FEW035 SCT250
FM180100 21005KT P6SM FEW035 SCT250
FM181600 22012KT P6SM SCT035 SCT100

Example: see airport list